sensor_id;sensor_type;location;lat;lon;timestamp;P1;durP1;ratioP1;P2;durP2;ratioP2
64957;SDS011;51486;50.232;19.208;2023-04-03T00:01:18;5.83;;;3.13;;
64957;SDS011;51486;50.232;19.208;2023-04-03T00:04:04;7.67;;;3.67;;
64957;SDS011;51486;50.232;19.208;2023-04-03T00:06:51;6.50;;;3.27;;
64957;SDS011;51486;50.232;19.208;2023-04-03T00:09:36;4.30;;;2.90;;
64957;SDS011;51486;50.232;19.208;2023-04-03T00:12:22;5.50;;;2.80;;
64957;SDS011;51486;50.232;19.208;2023-04-03T00:15:08;5.30;;;2.77;;
64957;SDS011;51486;50.232;19.208;2023-04-03T00:17:55;4.30;;;2.20;;
64957;SDS011;51486;50.232;19.208;2023-04-03T00:20:41;3.30;;;2.23;;
64957;SDS011;51486;50.232;19.208;2023-04-03T00:23:27;5.67;;;2.23;;
64957;SDS011;51486;50.232;19.208;2023-04-03T00:26:12;3.77;;;1.97;;
64957;SDS011;51486;50.232;19.208;2023-04-03T00:28:58;4.07;;;2.47;;
64957;SDS011;51486;50.232;19.208;2023-04-03T00:31:44;3.20;;;2.27;;
64957;SDS011;51486;50.232;19.208;2023-04-03T00:34:30;4.83;;;2.03;;
64957;SDS011;51486;50.232;19.208;2023-04-03T00:37:16;3.67;;;2.10;;
64957;SDS011;51486;50.232;19.208;2023-04-03T00:40:02;3.20;;;2.27;;
64957;SDS011;51486;50.232;19.208;2023-04-03T00:42:50;3.70;;;2.03;;
64957;SDS011;51486;50.232;19.208;2023-04-03T00:45:39;3.07;;;2.17;;
64957;SDS011;51486;50.232;19.208;2023-04-03T00:48:37;2.27;;;1.37;;
64957;SDS011;51486;50.232;19.208;2023-04-03T00:51:26;3.43;;;1.90;;
64957;SDS011;51486;50.232;19.208;2023-04-03T00:54:12;5.03;;;1.87;;
64957;SDS011;51486;50.232;19.208;2023-04-03T00:56:58;3.87;;;1.97;;
64957;SDS011;51486;50.232;19.208;2023-04-03T00:59:45;2.40;;;1.53;;
64957;SDS011;51486;50.232;19.208;2023-04-03T01:02:34;4.00;;;2.43;;
64957;SDS011;51486;50.232;19.208;2023-04-03T01:05:20;4.13;;;2.00;;
64957;SDS011;51486;50.232;19.208;2023-04-03T01:08:06;3.60;;;1.97;;
64957;SDS011;51486;50.232;19.208;2023-04-03T01:10:52;3.97;;;2.27;;
64957;SDS011;51486;50.232;19.208;2023-04-03T01:13:38;3.73;;;2.33;;
64957;SDS011;51486;50.232;19.208;2023-04-03T01:16:24;4.83;;;2.40;;
64957;SDS011;51486;50.232;19.208;2023-04-03T01:19:12;5.93;;;3.13;;
64957;SDS011;51486;50.232;19.208;2023-04-03T01:22:11;5.97;;;2.63;;
64957;SDS011;51486;50.232;19.208;2023-04-03T01:25:05;4.10;;;2.57;;
64957;SDS011;51486;50.232;19.208;2023-04-03T01:27:50;3.50;;;2.37;;
64957;SDS011;51486;50.232;19.208;2023-04-03T01:30:39;5.30;;;2.90;;
64957;SDS011;51486;50.232;19.208;2023-04-03T01:33:32;6.77;;;3.67;;
64957;SDS011;51486;50.232;19.208;2023-04-03T01:36:20;4.47;;;2.70;;
64957;SDS011;51486;50.232;19.208;2023-04-03T01:39:07;5.23;;;3.17;;
64957;SDS011;51486;50.232;19.208;2023-04-03T01:41:52;5.33;;;3.33;;
64957;SDS011;51486;50.232;19.208;2023-04-03T01:44:38;7.83;;;3.13;;
64957;SDS011;51486;50.232;19.208;2023-04-03T01:47:24;7.87;;;3.60;;
64957;SDS011;51486;50.232;19.208;2023-04-03T01:50:09;9.10;;;4.00;;
64957;SDS011;51486;50.232;19.208;2023-04-03T01:52:55;4.63;;;3.00;;
64957;SDS011;51486;50.232;19.208;2023-04-03T01:55:41;4.97;;;3.23;;
64957;SDS011;51486;50.232;19.208;2023-04-03T01:58:27;6.27;;;3.80;;
64957;SDS011;51486;50.232;19.208;2023-04-03T02:01:12;7.97;;;3.63;;
64957;SDS011;51486;50.232;19.208;2023-04-03T02:03:58;12.07;;;4.00;;
64957;SDS011;51486;50.232;19.208;2023-04-03T02:06:44;9.60;;;4.03;;
64957;SDS011;51486;50.232;19.208;2023-04-03T02:09:29;6.40;;;3.40;;
64957;SDS011;51486;50.232;19.208;2023-04-03T02:12:15;9.07;;;4.00;;
64957;SDS011;51486;50.232;19.208;2023-04-03T02:15:01;7.13;;;4.07;;
64957;SDS011;51486;50.232;19.208;2023-04-03T02:17:47;9.03;;;4.20;;
64957;SDS011;51486;50.232;19.208;2023-04-03T02:20:32;6.70;;;3.40;;
64957;SDS011;51486;50.232;19.208;2023-04-03T02:23:18;7.03;;;3.97;;
64957;SDS011;51486;50.232;19.208;2023-04-03T02:26:05;7.33;;;3.73;;
64957;SDS011;51486;50.232;19.208;2023-04-03T02:28:55;7.63;;;3.53;;
64957;SDS011;51486;50.232;19.208;2023-04-03T02:31:41;11.27;;;3.90;;
64957;SDS011;51486;50.232;19.208;2023-04-03T02:34:26;8.63;;;3.40;;
64957;SDS011;51486;50.232;19.208;2023-04-03T02:37:12;6.30;;;2.93;;
64957;SDS011;51486;50.232;19.208;2023-04-03T02:39:58;6.13;;;3.13;;
64957;SDS011;51486;50.232;19.208;2023-04-03T02:42:44;9.40;;;4.20;;
64957;SDS011;51486;50.232;19.208;2023-04-03T02:45:30;7.13;;;3.57;;
64957;SDS011;51486;50.232;19.208;2023-04-03T02:48:16;10.90;;;3.43;;
64957;SDS011;51486;50.232;19.208;2023-04-03T02:51:02;6.47;;;3.37;;
64957;SDS011;51486;50.232;19.208;2023-04-03T02:53:47;4.83;;;3.03;;
64957;SDS011;51486;50.232;19.208;2023-04-03T02:56:33;4.93;;;3.27;;
64957;SDS011;51486;50.232;19.208;2023-04-03T02:59:19;8.07;;;3.87;;
64957;SDS011;51486;50.232;19.208;2023-04-03T03:02:06;5.47;;;3.13;;
64957;SDS011;51486;50.232;19.208;2023-04-03T03:04:52;6.83;;;2.77;;
64957;SDS011;51486;50.232;19.208;2023-04-03T03:07:38;4.13;;;2.53;;
64957;SDS011;51486;50.232;19.208;2023-04-03T03:10:24;4.80;;;2.57;;
64957;SDS011;51486;50.232;19.208;2023-04-03T03:13:10;5.50;;;2.47;;
64957;SDS011;51486;50.232;19.208;2023-04-03T03:15:56;6.93;;;2.50;;
64957;SDS011;51486;50.232;19.208;2023-04-03T03:18:41;4.97;;;2.53;;
64957;SDS011;51486;50.232;19.208;2023-04-03T03:21:27;4.73;;;2.70;;
64957;SDS011;51486;50.232;19.208;2023-04-03T03:24:13;4.70;;;2.70;;
64957;SDS011;51486;50.232;19.208;2023-04-03T03:27:01;6.93;;;2.57;;
64957;SDS011;51486;50.232;19.208;2023-04-03T03:29:46;5.03;;;2.80;;
64957;SDS011;51486;50.232;19.208;2023-04-03T03:32:32;5.97;;;3.10;;
64957;SDS011;51486;50.232;19.208;2023-04-03T03:35:18;7.40;;;3.33;;
64957;SDS011;51486;50.232;19.208;2023-04-03T03:38:03;6.23;;;2.67;;
64957;SDS011;51486;50.232;19.208;2023-04-03T03:40:49;4.83;;;2.90;;
64957;SDS011;51486;50.232;19.208;2023-04-03T03:43:36;7.37;;;3.03;;
64957;SDS011;51486;50.232;19.208;2023-04-03T03:46:21;5.87;;;3.17;;
64957;SDS011;51486;50.232;19.208;2023-04-03T03:49:07;5.23;;;3.03;;
64957;SDS011;51486;50.232;19.208;2023-04-03T03:51:53;4.97;;;2.83;;
64957;SDS011;51486;50.232;19.208;2023-04-03T03:54:39;7.07;;;3.70;;
64957;SDS011;51486;50.232;19.208;2023-04-03T03:57:24;7.37;;;3.10;;
64957;SDS011;51486;50.232;19.208;2023-04-03T04:00:12;6.53;;;3.30;;
64957;SDS011;51486;50.232;19.208;2023-04-03T04:02:58;8.70;;;3.80;;
64957;SDS011;51486;50.232;19.208;2023-04-03T04:05:44;5.10;;;2.80;;
64957;SDS011;51486;50.232;19.208;2023-04-03T04:08:30;7.33;;;3.57;;
64957;SDS011;51486;50.232;19.208;2023-04-03T04:11:15;6.60;;;3.57;;
64957;SDS011;51486;50.232;19.208;2023-04-03T04:14:01;4.80;;;2.73;;
64957;SDS011;51486;50.232;19.208;2023-04-03T04:16:47;6.73;;;3.53;;
64957;SDS011;51486;50.232;19.208;2023-04-03T04:19:33;3.93;;;2.60;;
64957;SDS011;51486;50.232;19.208;2023-04-03T04:22:19;9.03;;;3.03;;
64957;SDS011;51486;50.232;19.208;2023-04-03T04:25:05;6.23;;;2.90;;
64957;SDS011;51486;50.232;19.208;2023-04-03T04:27:50;5.90;;;3.00;;
64957;SDS011;51486;50.232;19.208;2023-04-03T04:30:36;6.20;;;2.87;;
64957;SDS011;51486;50.232;19.208;2023-04-03T04:33:22;8.33;;;3.37;;
64957;SDS011;51486;50.232;19.208;2023-04-03T04:36:08;6.60;;;2.97;;
64957;SDS011;51486;50.232;19.208;2023-04-03T04:38:53;3.27;;;1.93;;
64957;SDS011;51486;50.232;19.208;2023-04-03T04:41:40;3.73;;;2.57;;
64957;SDS011;51486;50.232;19.208;2023-04-03T04:44:26;7.10;;;3.10;;
64957;SDS011;51486;50.232;19.208;2023-04-03T04:47:12;5.17;;;2.73;;
64957;SDS011;51486;50.232;19.208;2023-04-03T04:49:58;5.27;;;2.57;;
64957;SDS011;51486;50.232;19.208;2023-04-03T04:52:44;5.10;;;2.70;;
64957;SDS011;51486;50.232;19.208;2023-04-03T04:55:29;4.93;;;2.77;;
64957;SDS011;51486;50.232;19.208;2023-04-03T04:58:15;6.77;;;2.93;;
64957;SDS011;51486;50.232;19.208;2023-04-03T05:01:02;6.73;;;2.93;;
64957;SDS011;51486;50.232;19.208;2023-04-03T05:03:48;2.73;;;1.83;;
64957;SDS011;51486;50.232;19.208;2023-04-03T05:06:34;4.77;;;2.20;;
64957;SDS011;51486;50.232;19.208;2023-04-03T05:09:20;3.10;;;1.67;;
64957;SDS011;51486;50.232;19.208;2023-04-03T05:12:06;8.77;;;2.00;;
64957;SDS011;51486;50.232;19.208;2023-04-03T05:14:52;6.07;;;2.30;;
64957;SDS011;51486;50.232;19.208;2023-04-03T05:17:38;4.77;;;2.40;;
64957;SDS011;51486;50.232;19.208;2023-04-03T05:20:23;3.27;;;1.87;;
64957;SDS011;51486;50.232;19.208;2023-04-03T05:23:09;2.57;;;1.90;;
64957;SDS011;51486;50.232;19.208;2023-04-03T05:25:56;3.20;;;1.83;;
64957;SDS011;51486;50.232;19.208;2023-04-03T05:28:42;3.93;;;2.27;;
64957;SDS011;51486;50.232;19.208;2023-04-03T05:31:28;5.60;;;2.27;;
64957;SDS011;51486;50.232;19.208;2023-04-03T05:34:14;2.63;;;1.87;;
64957;SDS011;51486;50.232;19.208;2023-04-03T05:37:00;2.80;;;1.90;;
64957;SDS011;51486;50.232;19.208;2023-04-03T05:39:48;4.03;;;1.87;;
64957;SDS011;51486;50.232;19.208;2023-04-03T05:42:34;5.90;;;2.00;;
64957;SDS011;51486;50.232;19.208;2023-04-03T05:45:20;5.93;;;1.93;;
64957;SDS011;51486;50.232;19.208;2023-04-03T05:48:05;3.73;;;1.80;;
64957;SDS011;51486;50.232;19.208;2023-04-03T05:50:51;5.73;;;1.90;;
64957;SDS011;51486;50.232;19.208;2023-04-03T05:53:37;5.13;;;1.70;;
64957;SDS011;51486;50.232;19.208;2023-04-03T05:56:23;3.10;;;1.53;;
64957;SDS011;51486;50.232;19.208;2023-04-03T05:59:09;4.60;;;2.03;;
64957;SDS011;51486;50.232;19.208;2023-04-03T06:01:55;5.43;;;1.97;;
64957;SDS011;51486;50.232;19.208;2023-04-03T06:04:40;10.37;;;2.43;;
64957;SDS011;51486;50.232;19.208;2023-04-03T06:07:26;11.77;;;2.30;;
64957;SDS011;51486;50.232;19.208;2023-04-03T06:10:13;4.07;;;2.10;;
64957;SDS011;51486;50.232;19.208;2023-04-03T06:13:00;5.00;;;2.37;;
64957;SDS011;51486;50.232;19.208;2023-04-03T06:15:45;4.93;;;2.30;;
64957;SDS011;51486;50.232;19.208;2023-04-03T06:18:32;4.80;;;2.53;;
64957;SDS011;51486;50.232;19.208;2023-04-03T06:21:17;4.73;;;2.50;;
64957;SDS011;51486;50.232;19.208;2023-04-03T06:24:04;4.20;;;2.67;;
64957;SDS011;51486;50.232;19.208;2023-04-03T06:26:51;5.23;;;2.77;;
64957;SDS011;51486;50.232;19.208;2023-04-03T06:29:37;9.93;;;2.20;;
64957;SDS011;51486;50.232;19.208;2023-04-03T06:32:23;9.37;;;3.20;;
64957;SDS011;51486;50.232;19.208;2023-04-03T06:35:09;10.60;;;2.50;;
64957;SDS011;51486;50.232;19.208;2023-04-03T06:37:56;5.50;;;2.10;;
64957;SDS011;51486;50.232;19.208;2023-04-03T06:40:42;5.80;;;2.30;;
64957;SDS011;51486;50.232;19.208;2023-04-03T06:43:29;3.40;;;1.90;;
64957;SDS011;51486;50.232;19.208;2023-04-03T06:46:17;4.20;;;2.00;;
64957;SDS011;51486;50.232;19.208;2023-04-03T06:49:04;3.63;;;1.90;;
64957;SDS011;51486;50.232;19.208;2023-04-03T06:51:52;5.73;;;1.93;;
64957;SDS011;51486;50.232;19.208;2023-04-03T06:54:39;5.70;;;1.53;;
64957;SDS011;51486;50.232;19.208;2023-04-03T06:57:25;3.80;;;1.90;;
64957;SDS011;51486;50.232;19.208;2023-04-03T07:00:11;6.17;;;1.97;;
64957;SDS011;51486;50.232;19.208;2023-04-03T07:02:58;2.37;;;1.43;;
64957;SDS011;51486;50.232;19.208;2023-04-03T07:05:44;6.17;;;2.33;;
64957;SDS011;51486;50.232;19.208;2023-04-03T07:08:30;6.13;;;2.50;;
64957;SDS011;51486;50.232;19.208;2023-04-03T07:11:17;8.47;;;2.03;;
64957;SDS011;51486;50.232;19.208;2023-04-03T07:14:03;4.47;;;1.80;;
64957;SDS011;51486;50.232;19.208;2023-04-03T07:16:48;6.97;;;1.73;;
64957;SDS011;51486;50.232;19.208;2023-04-03T07:19:34;9.43;;;2.23;;
64957;SDS011;51486;50.232;19.208;2023-04-03T07:22:20;17.87;;;2.03;;
64957;SDS011;51486;50.232;19.208;2023-04-03T07:25:06;2.57;;;1.37;;
64957;SDS011;51486;50.232;19.208;2023-04-03T07:27:52;4.70;;;1.83;;
64957;SDS011;51486;50.232;19.208;2023-04-03T07:30:43;7.30;;;2.47;;
64957;SDS011;51486;50.232;19.208;2023-04-03T07:33:32;4.57;;;2.03;;
64957;SDS011;51486;50.232;19.208;2023-04-03T07:36:19;3.50;;;1.70;;
64957;SDS011;51486;50.232;19.208;2023-04-03T07:39:06;3.87;;;1.60;;
64957;SDS011;51486;50.232;19.208;2023-04-03T07:41:53;3.60;;;1.67;;
64957;SDS011;51486;50.232;19.208;2023-04-03T07:44:40;5.50;;;1.67;;
64957;SDS011;51486;50.232;19.208;2023-04-03T07:47:27;5.80;;;1.97;;
64957;SDS011;51486;50.232;19.208;2023-04-03T07:50:13;2.33;;;1.50;;
64957;SDS011;51486;50.232;19.208;2023-04-03T07:52:58;4.33;;;1.87;;
64957;SDS011;51486;50.232;19.208;2023-04-03T07:55:47;5.67;;;2.13;;
64957;SDS011;51486;50.232;19.208;2023-04-03T07:58:34;3.50;;;1.93;;
64957;SDS011;51486;50.232;19.208;2023-04-03T08:01:20;4.87;;;1.70;;
64957;SDS011;51486;50.232;19.208;2023-04-03T08:04:06;3.03;;;1.97;;
64957;SDS011;51486;50.232;19.208;2023-04-03T08:06:52;3.97;;;2.27;;
64957;SDS011;51486;50.232;19.208;2023-04-03T08:09:38;4.67;;;2.10;;
64957;SDS011;51486;50.232;19.208;2023-04-03T08:12:23;4.00;;;1.60;;
64957;SDS011;51486;50.232;19.208;2023-04-03T08:15:09;4.90;;;1.90;;
64957;SDS011;51486;50.232;19.208;2023-04-03T08:17:55;8.53;;;1.57;;
64957;SDS011;51486;50.232;19.208;2023-04-03T08:20:41;12.87;;;1.80;;
64957;SDS011;51486;50.232;19.208;2023-04-03T08:23:28;2.90;;;1.37;;
64957;SDS011;51486;50.232;19.208;2023-04-03T08:26:14;3.47;;;1.20;;
64957;SDS011;51486;50.232;19.208;2023-04-03T08:29:01;4.20;;;1.63;;
64957;SDS011;51486;50.232;19.208;2023-04-03T08:31:47;4.03;;;1.83;;
64957;SDS011;51486;50.232;19.208;2023-04-03T08:34:35;2.37;;;1.30;;
64957;SDS011;51486;50.232;19.208;2023-04-03T08:37:23;2.37;;;1.20;;
64957;SDS011;51486;50.232;19.208;2023-04-03T08:40:13;2.00;;;1.20;;
64957;SDS011;51486;50.232;19.208;2023-04-03T08:45:57;2.73;;;1.00;;
64957;SDS011;51486;50.232;19.208;2023-04-03T08:48:48;5.83;;;1.80;;
64957;SDS011;51486;50.232;19.208;2023-04-03T08:51:44;3.27;;;1.43;;
64957;SDS011;51486;50.232;19.208;2023-04-03T08:54:34;3.53;;;1.13;;
64957;SDS011;51486;50.232;19.208;2023-04-03T08:57:29;6.27;;;1.53;;
64957;SDS011;51486;50.232;19.208;2023-04-03T09:00:18;4.43;;;1.73;;
64957;SDS011;51486;50.232;19.208;2023-04-03T09:03:10;5.37;;;2.13;;
64957;SDS011;51486;50.232;19.208;2023-04-03T09:06:10;3.63;;;2.40;;
64957;SDS011;51486;50.232;19.208;2023-04-03T09:09:13;3.53;;;1.87;;
64957;SDS011;51486;50.232;19.208;2023-04-03T09:15:20;3.40;;;1.83;;
64957;SDS011;51486;50.232;19.208;2023-04-03T09:18:21;4.80;;;1.70;;
64957;SDS011;51486;50.232;19.208;2023-04-03T09:21:26;2.50;;;1.40;;
64957;SDS011;51486;50.232;19.208;2023-04-03T09:24:18;2.70;;;1.40;;
64957;SDS011;51486;50.232;19.208;2023-04-03T09:27:06;5.07;;;1.20;;
64957;SDS011;51486;50.232;19.208;2023-04-03T09:29:55;4.90;;;1.50;;
64957;SDS011;51486;50.232;19.208;2023-04-03T09:32:43;1.67;;;1.13;;
64957;SDS011;51486;50.232;19.208;2023-04-03T09:35:32;4.83;;;1.77;;
64957;SDS011;51486;50.232;19.208;2023-04-03T09:38:20;1.73;;;0.87;;
64957;SDS011;51486;50.232;19.208;2023-04-03T09:41:13;1.60;;;1.27;;
64957;SDS011;51486;50.232;19.208;2023-04-03T09:44:21;3.30;;;1.77;;
64957;SDS011;51486;50.232;19.208;2023-04-03T09:47:24;2.80;;;1.50;;
64957;SDS011;51486;50.232;19.208;2023-04-03T09:50:20;2.20;;;1.23;;
64957;SDS011;51486;50.232;19.208;2023-04-03T09:53:16;1.60;;;1.00;;
64957;SDS011;51486;50.232;19.208;2023-04-03T10:02:45;4.57;;;1.80;;
64957;SDS011;51486;50.232;19.208;2023-04-03T10:11:10;1.60;;;1.00;;
64957;SDS011;51486;50.232;19.208;2023-04-03T10:14:02;4.27;;;1.37;;
64957;SDS011;51486;50.232;19.208;2023-04-03T10:17:01;2.00;;;1.17;;
64957;SDS011;51486;50.232;19.208;2023-04-03T10:19:56;2.63;;;1.00;;
64957;SDS011;51486;50.232;19.208;2023-04-03T10:25:41;3.53;;;1.30;;
64957;SDS011;51486;50.232;19.208;2023-04-03T10:28:56;1.23;;;0.83;;
64957;SDS011;51486;50.232;19.208;2023-04-03T10:34:44;3.47;;;1.43;;
64957;SDS011;51486;50.232;19.208;2023-04-03T10:37:34;5.07;;;1.20;;
64957;SDS011;51486;50.232;19.208;2023-04-03T10:44:05;1.93;;;0.90;;
64957;SDS011;51486;50.232;19.208;2023-04-03T10:56:51;1.23;;;1.00;;
64957;SDS011;51486;50.232;19.208;2023-04-03T11:05:47;1.20;;;0.87;;
64957;SDS011;51486;50.232;19.208;2023-04-03T11:11:43;2.67;;;1.10;;
64957;SDS011;51486;50.232;19.208;2023-04-03T11:20:18;1.07;;;0.63;;
64957;SDS011;51486;50.232;19.208;2023-04-03T11:23:26;2.53;;;1.10;;
64957;SDS011;51486;50.232;19.208;2023-04-03T11:26:12;1.10;;;1.00;;
64957;SDS011;51486;50.232;19.208;2023-04-03T11:29:01;1.53;;;0.80;;
64957;SDS011;51486;50.232;19.208;2023-04-03T11:32:09;1.20;;;0.90;;
64957;SDS011;51486;50.232;19.208;2023-04-03T11:35:06;1.80;;;0.93;;
64957;SDS011;51486;50.232;19.208;2023-04-03T11:37:54;2.33;;;1.47;;
64957;SDS011;51486;50.232;19.208;2023-04-03T11:40:40;2.30;;;1.00;;
64957;SDS011;51486;50.232;19.208;2023-04-03T11:43:27;1.20;;;1.00;;
64957;SDS011;51486;50.232;19.208;2023-04-03T11:46:15;2.70;;;1.20;;
64957;SDS011;51486;50.232;19.208;2023-04-03T11:49:04;2.90;;;1.10;;
64957;SDS011;51486;50.232;19.208;2023-04-03T11:51:50;1.53;;;0.90;;
64957;SDS011;51486;50.232;19.208;2023-04-03T11:54:46;1.27;;;1.00;;
64957;SDS011;51486;50.232;19.208;2023-04-03T12:01:42;1.67;;;1.30;;
64957;SDS011;51486;50.232;19.208;2023-04-03T12:04:27;1.73;;;0.90;;
64957;SDS011;51486;50.232;19.208;2023-04-03T12:07:18;1.20;;;1.00;;
64957;SDS011;51486;50.232;19.208;2023-04-03T12:10:13;1.40;;;0.90;;
64957;SDS011;51486;50.232;19.208;2023-04-03T12:13:12;0.90;;;0.80;;
64957;SDS011;51486;50.232;19.208;2023-04-03T12:16:02;1.37;;;1.13;;
64957;SDS011;51486;50.232;19.208;2023-04-03T12:24:33;1.03;;;0.80;;
64957;SDS011;51486;50.232;19.208;2023-04-03T12:27:27;2.87;;;0.97;;
64957;SDS011;51486;50.232;19.208;2023-04-03T12:30:22;3.87;;;1.20;;
64957;SDS011;51486;50.232;19.208;2023-04-03T12:33:17;1.83;;;0.97;;
64957;SDS011;51486;50.232;19.208;2023-04-03T12:36:13;1.47;;;1.10;;
64957;SDS011;51486;50.232;19.208;2023-04-03T12:40:09;2.77;;;0.70;;
64957;SDS011;51486;50.232;19.208;2023-04-03T12:45:25;2.93;;;1.33;;
64957;SDS011;51486;50.232;19.208;2023-04-03T12:48:13;1.83;;;1.20;;
64957;SDS011;51486;50.232;19.208;2023-04-03T12:51:01;1.33;;;1.23;;
64957;SDS011;51486;50.232;19.208;2023-04-03T12:53:49;2.03;;;0.70;;
64957;SDS011;51486;50.232;19.208;2023-04-03T12:56:38;2.07;;;0.90;;
64957;SDS011;51486;50.232;19.208;2023-04-03T12:59:26;1.33;;;0.93;;
64957;SDS011;51486;50.232;19.208;2023-04-03T13:02:22;1.73;;;0.93;;
64957;SDS011;51486;50.232;19.208;2023-04-03T13:05:18;2.77;;;0.87;;
64957;SDS011;51486;50.232;19.208;2023-04-03T13:08:09;1.50;;;0.93;;
64957;SDS011;51486;50.232;19.208;2023-04-03T13:11:01;2.17;;;1.33;;
64957;SDS011;51486;50.232;19.208;2023-04-03T13:13:58;4.63;;;1.10;;
64957;SDS011;51486;50.232;19.208;2023-04-03T13:17:31;5.63;;;2.10;;
64957;SDS011;51486;50.232;19.208;2023-04-03T13:20:09;3.10;;;1.27;;
64957;SDS011;51486;50.232;19.208;2023-04-03T13:23:07;1.53;;;1.43;;
64957;SDS011;51486;50.232;19.208;2023-04-03T13:25:54;2.13;;;1.13;;
64957;SDS011;51486;50.232;19.208;2023-04-03T13:28:42;2.40;;;1.33;;
64957;SDS011;51486;50.232;19.208;2023-04-03T13:31:36;3.33;;;1.50;;
64957;SDS011;51486;50.232;19.208;2023-04-03T13:34:24;1.97;;;1.13;;
64957;SDS011;51486;50.232;19.208;2023-04-03T13:37:20;2.90;;;1.30;;
64957;SDS011;51486;50.232;19.208;2023-04-03T13:43:14;0.83;;;0.83;;
64957;SDS011;51486;50.232;19.208;2023-04-03T13:48:56;0.80;;;0.80;;
64957;SDS011;51486;50.232;19.208;2023-04-03T13:51:42;1.10;;;0.90;;
64957;SDS011;51486;50.232;19.208;2023-04-03T13:54:35;1.97;;;1.30;;
64957;SDS011;51486;50.232;19.208;2023-04-03T13:57:23;1.23;;;1.03;;
64957;SDS011;51486;50.232;19.208;2023-04-03T14:00:33;1.50;;;1.20;;
64957;SDS011;51486;50.232;19.208;2023-04-03T14:03:31;4.63;;;1.83;;
64957;SDS011;51486;50.232;19.208;2023-04-03T14:06:22;3.77;;;1.80;;
64957;SDS011;51486;50.232;19.208;2023-04-03T14:09:09;1.83;;;1.33;;
64957;SDS011;51486;50.232;19.208;2023-04-03T14:11:56;4.73;;;1.80;;
64957;SDS011;51486;50.232;19.208;2023-04-03T14:14:45;1.87;;;1.10;;
64957;SDS011;51486;50.232;19.208;2023-04-03T14:17:31;4.10;;;1.40;;
64957;SDS011;51486;50.232;19.208;2023-04-03T14:20:18;2.70;;;1.53;;
64957;SDS011;51486;50.232;19.208;2023-04-03T14:23:07;1.83;;;1.27;;
64957;SDS011;51486;50.232;19.208;2023-04-03T14:25:52;1.30;;;1.17;;
64957;SDS011;51486;50.232;19.208;2023-04-03T14:28:38;1.20;;;1.10;;
64957;SDS011;51486;50.232;19.208;2023-04-03T14:31:25;1.77;;;1.30;;
64957;SDS011;51486;50.232;19.208;2023-04-03T14:34:12;2.87;;;1.53;;
64957;SDS011;51486;50.232;19.208;2023-04-03T14:36:59;1.77;;;1.10;;
64957;SDS011;51486;50.232;19.208;2023-04-03T14:39:44;6.67;;;1.60;;
64957;SDS011;51486;50.232;19.208;2023-04-03T14:42:32;2.87;;;1.70;;
64957;SDS011;51486;50.232;19.208;2023-04-03T14:45:21;3.53;;;1.20;;
64957;SDS011;51486;50.232;19.208;2023-04-03T14:48:09;3.97;;;1.40;;
64957;SDS011;51486;50.232;19.208;2023-04-03T14:51:02;4.07;;;1.47;;
64957;SDS011;51486;50.232;19.208;2023-04-03T14:53:48;2.00;;;1.23;;
64957;SDS011;51486;50.232;19.208;2023-04-03T14:56:34;4.07;;;1.37;;
64957;SDS011;51486;50.232;19.208;2023-04-03T14:59:20;1.37;;;1.23;;
64957;SDS011;51486;50.232;19.208;2023-04-03T15:05:11;5.37;;;1.53;;
64957;SDS011;51486;50.232;19.208;2023-04-03T15:07:57;2.30;;;1.43;;
64957;SDS011;51486;50.232;19.208;2023-04-03T15:10:45;2.33;;;1.57;;
64957;SDS011;51486;50.232;19.208;2023-04-03T15:13:31;4.10;;;1.57;;
64957;SDS011;51486;50.232;19.208;2023-04-03T15:16:17;0.87;;;0.80;;
64957;SDS011;51486;50.232;19.208;2023-04-03T15:19:04;1.53;;;1.00;;
64957;SDS011;51486;50.232;19.208;2023-04-03T15:21:50;2.83;;;1.17;;
64957;SDS011;51486;50.232;19.208;2023-04-03T15:24:36;7.83;;;1.40;;
64957;SDS011;51486;50.232;19.208;2023-04-03T15:27:22;2.43;;;1.50;;
64957;SDS011;51486;50.232;19.208;2023-04-03T15:30:10;2.97;;;1.30;;
64957;SDS011;51486;50.232;19.208;2023-04-03T15:32:58;6.27;;;1.60;;
64957;SDS011;51486;50.232;19.208;2023-04-03T15:35:44;2.70;;;1.43;;
64957;SDS011;51486;50.232;19.208;2023-04-03T15:38:30;2.70;;;1.27;;
64957;SDS011;51486;50.232;19.208;2023-04-03T15:41:16;1.57;;;1.10;;
64957;SDS011;51486;50.232;19.208;2023-04-03T15:44:02;2.20;;;1.17;;
64957;SDS011;51486;50.232;19.208;2023-04-03T15:46:48;1.23;;;0.93;;
64957;SDS011;51486;50.232;19.208;2023-04-03T15:49:36;3.33;;;1.40;;
64957;SDS011;51486;50.232;19.208;2023-04-03T15:52:22;2.03;;;1.30;;
64957;SDS011;51486;50.232;19.208;2023-04-03T15:55:08;1.73;;;1.00;;
64957;SDS011;51486;50.232;19.208;2023-04-03T15:57:54;2.17;;;1.23;;
64957;SDS011;51486;50.232;19.208;2023-04-03T16:00:40;1.33;;;1.10;;
64957;SDS011;51486;50.232;19.208;2023-04-03T16:03:26;3.93;;;1.27;;
64957;SDS011;51486;50.232;19.208;2023-04-03T16:06:13;1.93;;;1.23;;
64957;SDS011;51486;50.232;19.208;2023-04-03T16:09:00;4.40;;;1.30;;
64957;SDS011;51486;50.232;19.208;2023-04-03T16:11:46;2.30;;;0.90;;
64957;SDS011;51486;50.232;19.208;2023-04-03T16:14:32;5.27;;;1.27;;
64957;SDS011;51486;50.232;19.208;2023-04-03T16:17:18;3.33;;;1.13;;
64957;SDS011;51486;50.232;19.208;2023-04-03T16:20:04;2.20;;;1.30;;
64957;SDS011;51486;50.232;19.208;2023-04-03T16:22:52;1.13;;;1.03;;
64957;SDS011;51486;50.232;19.208;2023-04-03T16:25:38;5.83;;;2.10;;
64957;SDS011;51486;50.232;19.208;2023-04-03T16:28:24;1.73;;;1.10;;
64957;SDS011;51486;50.232;19.208;2023-04-03T16:31:10;4.17;;;1.37;;
64957;SDS011;51486;50.232;19.208;2023-04-03T16:33:55;9.13;;;2.00;;
64957;SDS011;51486;50.232;19.208;2023-04-03T16:36:41;3.17;;;1.30;;
64957;SDS011;51486;50.232;19.208;2023-04-03T16:39:27;2.53;;;1.60;;
64957;SDS011;51486;50.232;19.208;2023-04-03T16:42:13;2.63;;;1.27;;
64957;SDS011;51486;50.232;19.208;2023-04-03T16:44:59;2.03;;;1.37;;
64957;SDS011;51486;50.232;19.208;2023-04-03T16:47:48;2.00;;;1.30;;
64957;SDS011;51486;50.232;19.208;2023-04-03T16:50:33;5.30;;;1.10;;
64957;SDS011;51486;50.232;19.208;2023-04-03T16:53:20;2.67;;;1.40;;
64957;SDS011;51486;50.232;19.208;2023-04-03T16:56:06;4.53;;;1.50;;
64957;SDS011;51486;50.232;19.208;2023-04-03T16:58:52;12.73;;;1.50;;
64957;SDS011;51486;50.232;19.208;2023-04-03T17:01:38;1.63;;;1.10;;
64957;SDS011;51486;50.232;19.208;2023-04-03T17:04:24;1.90;;;1.00;;
64957;SDS011;51486;50.232;19.208;2023-04-03T17:07:11;2.87;;;1.50;;
64957;SDS011;51486;50.232;19.208;2023-04-03T17:09:57;4.87;;;1.60;;
64957;SDS011;51486;50.232;19.208;2023-04-03T17:12:43;6.30;;;1.77;;
64957;SDS011;51486;50.232;19.208;2023-04-03T17:15:29;6.03;;;1.77;;
64957;SDS011;51486;50.232;19.208;2023-04-03T17:18:14;2.47;;;1.50;;
64957;SDS011;51486;50.232;19.208;2023-04-03T17:21:01;4.60;;;1.50;;
64957;SDS011;51486;50.232;19.208;2023-04-03T17:23:49;4.67;;;2.10;;
64957;SDS011;51486;50.232;19.208;2023-04-03T17:26:39;3.43;;;1.50;;
64957;SDS011;51486;50.232;19.208;2023-04-03T17:29:26;4.87;;;1.87;;
64957;SDS011;51486;50.232;19.208;2023-04-03T17:32:12;3.83;;;1.43;;
64957;SDS011;51486;50.232;19.208;2023-04-03T17:34:58;5.73;;;1.30;;
64957;SDS011;51486;50.232;19.208;2023-04-03T17:37:44;3.53;;;1.73;;
64957;SDS011;51486;50.232;19.208;2023-04-03T17:40:29;2.60;;;1.37;;
64957;SDS011;51486;50.232;19.208;2023-04-03T17:43:15;2.63;;;1.57;;
64957;SDS011;51486;50.232;19.208;2023-04-03T17:46:02;4.33;;;1.87;;
64957;SDS011;51486;50.232;19.208;2023-04-03T17:48:49;3.23;;;1.60;;
64957;SDS011;51486;50.232;19.208;2023-04-03T17:51:36;1.97;;;1.40;;